Time;durP1;ratioP1;P1;durP2;ratioP2;P2;SDS_P1;SDS_P2;PMS_P1;PMS_P2;Temp;Humidity;BMP_temperature;BMP_pressure;BME280_temperature;BME280_humidity;BME280_pressure;Samples;Min_cycle;Max_cycle;Signal;HPM_P1;HPM_P2
2022/01/13 00:00:55;;;;;;;12.20;11.00;;;;;;;;;;4809872;29;32509;-74
2022/01/13 00:03:23;;;;;;;10.88;9.70;;;;;;;;;;4809588;29;32223;-73
2022/01/13 00:05:51;;;;;;;11.73;9.63;;;;;;;;;;4808601;29;33943;-77
2022/01/13 00:08:21;;;;;;;11.05;9.98;;;;;;;;;;4792968;29;32720;-76
2022/01/13 00:10:49;;;;;;;13.68;10.55;;;;;;;;;;4791427;29;32611;-75
2022/01/13 00:13:23;;;;;;;11.23;10.18;;;;;;;;;;4793673;29;32524;-77
2022/01/13 00:16:22;;;;;;;16.60;10.80;;;;;;;;;;4793900;29;32438;-79
2022/01/13 00:18:48;;;;;;;12.13;10.85;;;;;;;;;;4793916;29;32339;-75
2022/01/13 00:21:30;;;;;;;17.15;10.55;;;;;;;;;;4793556;29;32524;-74
2022/01/13 00:24:01;;;;;;;;;;;;;;;;;;4793584;29;32562;-75
2022/01/13 00:26:31;;;;;;;12.70;11.40;;;;;;;;;;4793951;29;32594;-75
2022/01/13 00:29:02;;;;;;;12.80;10.73;;;;;;;;;;4794168;29;35702;-77
2022/01/13 00:31:34;;;;;;;15.13;10.57;;;;;;;;;;4793695;29;32609;-74
2022/01/13 00:34:04;;;;;;;12.40;10.77;;;;;;;;;;4793707;29;32513;-75
2022/01/13 00:36:34;;;;;;;14.35;10.60;;;;;;;;;;4777250;29;32577;-74
2022/01/13 00:39:06;;;;;;;11.13;10.02;;;;;;;;;;4793839;29;32644;-74
2022/01/13 00:41:34;;;;;;;13.15;11.27;;;;;;;;;;4793052;29;32483;-75
2022/01/13 00:44:05;;;;;;;12.00;10.85;;;;;;;;;;4777193;29;33224;-75
2022/01/13 00:46:41;;;;;;;13.48;10.10;;;;;;;;;;4793818;29;32290;-75
2022/01/13 00:49:11;;;;;;;13.32;10.30;;;;;;;;;;4793747;29;32440;-74
2022/01/13 00:51:39;;;;;;;10.10;9.10;;;;;;;;;;4793437;29;34819;-75
2022/01/13 00:54:10;;;;;;;11.48;9.85;;;;;;;;;;4793457;29;32362;-77
2022/01/13 00:56:39;;;;;;;12.40;9.98;;;;;;;;;;4793722;29;32560;-76
2022/01/13 00:59:10;;;;;;;12.05;10.13;;;;;;;;;;4792772;29;32509;-75
2022/01/13 01:01:41;;;;;;;11.23;9.77;;;;;;;;;;4793535;29;32526;-75
2022/01/13 01:04:10;;;;;;;10.88;9.77;;;;;;;;;;4793461;29;32488;-75
2022/01/13 01:06:38;;;;;;;11.45;10.07;;;;;;;;;;4793434;29;32313;-76
2022/01/13 01:09:14;;;;;;;11.73;9.50;;;;;;;;;;4793538;29;32865;-77
2022/01/13 01:11:45;;;;;;;11.55;9.25;;;;;;;;;;4793416;29;32715;-79
2022/01/13 01:14:14;;;;;;;11.90;9.93;;;;;;;;;;4794225;29;34487;-78
2022/01/13 01:16:43;;;;;;;14.02;9.60;;;;;;;;;;4793488;29;32601;-81
2022/01/13 01:19:12;;;;;;;9.55;8.63;;;;;;;;;;4794045;29;32668;-76
2022/01/13 01:22:15;;;;;;;10.30;9.45;;;;;;;;;;4793015;29;32450;-78
2022/01/13 01:25:00;;;;;;;12.98;9.40;;;;;;;;;;4793730;29;32271;-81
2022/01/13 01:27:33;;;;;;;8.98;8.07;;;;;;;;;;4777065;29;32525;-76
2022/01/13 01:30:07;;;;;;;13.63;9.48;;;;;;;;;;4793236;29;32517;-80
2022/01/13 01:32:37;;;;;;;10.10;9.10;;;;;;;;;;4776778;29;32367;-76
2022/01/13 01:35:13;;;;;;;9.70;8.75;;;;;;;;;;4792307;29;32359;-73
2022/01/13 01:37:42;;;;;;;11.45;8.68;;;;;;;;;;4792860;29;35016;-74
2022/01/13 01:40:14;;;;;;;10.40;8.55;;;;;;;;;;4792432;29;32986;-76
2022/01/13 01:42:42;;;;;;;13.40;8.07;;;;;;;;;;4775535;29;32530;-78
2022/01/13 01:45:12;;;;;;;9.55;8.38;;;;;;;;;;4793358;29;32392;-75
2022/01/13 01:47:41;;;;;;;10.63;8.45;;;;;;;;;;4792982;29;34743;-75
2022/01/13 01:50:18;;;;;;;9.27;8.35;;;;;;;;;;4792028;29;32578;-73
2022/01/13 01:52:47;;;;;;;9.38;8.60;;;;;;;;;;4793066;29;32399;-72
2022/01/13 01:55:17;;;;;;;10.48;8.57;;;;;;;;;;4792242;29;32490;-72
2022/01/13 01:57:47;;;;;;;9.90;8.30;;;;;;;;;;4792475;29;32721;-73
2022/01/13 02:00:18;;;;;;;8.35;7.60;;;;;;;;;;4793036;29;35228;-75
2022/01/13 02:02:46;;;;;;;9.70;8.70;;;;;;;;;;4792522;29;32411;-71
2022/01/13 02:05:15;;;;;;;9.80;8.80;;;;;;;;;;4791971;29;32466;-71
2022/01/13 02:07:44;;;;;;;14.57;8.35;;;;;;;;;;4775553;29;32523;-72
2022/01/13 02:10:14;;;;;;;9.07;8.15;;;;;;;;;;4792281;29;35710;-72
2022/01/13 02:12:49;;;;;;;10.23;9.05;;;;;;;;;;4790934;29;32464;-72
2022/01/13 02:15:48;;;;;;;9.95;8.68;;;;;;;;;;4806826;29;32216;-71
2022/01/13 02:18:17;;;;;;;10.95;8.27;;;;;;;;;;4810064;29;32756;-72
2022/01/13 02:20:52;;;;;;;11.25;8.38;;;;;;;;;;4810341;29;32429;-72
2022/01/13 02:23:34;;;;;;;10.25;8.63;;;;;;;;;;4809965;29;35947;-72
2022/01/13 02:26:05;;;;;;;8.93;8.02;;;;;;;;;;4810168;29;32438;-72
2022/01/13 02:28:33;;;;;;;9.30;7.65;;;;;;;;;;4810258;29;32399;-72
2022/01/13 02:31:01;;;;;;;8.13;7.45;;;;;;;;;;4812529;29;32583;-73
2022/01/13 02:33:29;;;;;;;10.85;8.50;;;;;;;;;;4812757;29;34546;-72
2022/01/13 02:35:58;;;;;;;11.52;8.98;;;;;;;;;;4807709;29;32425;-72
2022/01/13 02:38:26;;;;;;;9.93;8.48;;;;;;;;;;4775941;29;32400;-72
2022/01/13 02:40:56;;;;;;;10.77;9.10;;;;;;;;;;4776267;29;32411;-75
2022/01/13 02:43:26;;;;;;;13.20;8.43;;;;;;;;;;4776191;29;32406;-75
2022/01/13 02:46:07;;;;;;;10.38;8.20;;;;;;;;;;4776146;29;33961;-73
2022/01/13 02:48:36;;;;;;;9.75;8.32;;;;;;;;;;4776169;29;32373;-75
2022/01/13 02:51:06;;;;;;;10.63;8.85;;;;;;;;;;4774981;29;32412;-73
2022/01/13 02:53:34;;;;;;;9.10;8.10;;;;;;;;;;4776262;29;31883;-74
2022/01/13 02:56:04;;;;;;;9.45;8.25;;;;;;;;;;4775836;29;34480;-71
2022/01/13 02:58:33;;;;;;;10.20;8.48;;;;;;;;;;4775258;29;32483;-73
2022/01/13 03:01:02;;;;;;;11.25;7.97;;;;;;;;;;4776096;29;32539;-69
2022/01/13 03:03:31;;;;;;;8.23;7.38;;;;;;;;;;4776184;29;32888;-72
2022/01/13 03:06:07;;;;;;;11.45;8.05;;;;;;;;;;4766608;29;32487;-67
2022/01/13 03:08:37;;;;;;;10.13;8.25;;;;;;;;;;4793040;29;33935;-72
2022/01/13 03:11:05;;;;;;;8.57;7.78;;;;;;;;;;4777741;29;32330;-73
2022/01/13 03:13:34;;;;;;;10.05;7.93;;;;;;;;;;4792404;29;32626;-73
2022/01/13 03:16:07;;;;;;;10.77;7.95;;;;;;;;;;4794304;29;32401;-74
2022/01/13 03:18:35;;;;;;;10.15;8.00;;;;;;;;;;4776215;29;34977;-71
2022/01/13 03:21:04;;;;;;;9.38;8.40;;;;;;;;;;4791720;29;32871;-73
2022/01/13 03:23:33;;;;;;;12.68;8.60;;;;;;;;;;4792187;29;32556;-74
2022/01/13 03:26:01;;;;;;;8.35;7.57;;;;;;;;;;4793315;29;32511;-73
2022/01/13 03:28:31;;;;;;;9.70;7.88;;;;;;;;;;4793720;29;32596;-75
2022/01/13 03:31:01;;;;;;;12.80;7.45;;;;;;;;;;4791050;29;34555;-73
2022/01/13 03:33:30;;;;;;;10.02;7.72;;;;;;;;;;4791678;29;32836;-72
2022/01/13 03:35:59;;;;;;;8.75;7.90;;;;;;;;;;4792722;29;32635;-73
2022/01/13 03:38:27;;;;;;;8.27;7.50;;;;;;;;;;4776460;29;32683;-72
2022/01/13 03:40:57;;;;;;;10.10;8.80;;;;;;;;;;4791599;29;34121;-73
2022/01/13 03:43:25;;;;;;;10.25;8.63;;;;;;;;;;4791658;29;32532;-72
2022/01/13 03:45:53;;;;;;;14.52;9.00;;;;;;;;;;4793078;29;32404;-72
2022/01/13 03:48:21;;;;;;;10.77;8.23;;;;;;;;;;4793245;29;32233;-73
2022/01/13 03:50:49;;;;;;;11.57;8.05;;;;;;;;;;4792916;29;32419;-74
2022/01/13 03:54:19;;;;;;;10.77;7.45;;;;;;;;;;4793801;29;34534;-73
2022/01/13 03:57:52;;;;;;;10.68;8.23;;;;;;;;;;4782298;29;32211;-72
2022/01/13 04:01:07;;;;;;;;;;;;;;;;;;4704610;30;32518;-74
2022/01/13 04:03:35;;;;;;;9.73;7.63;;;;;;;;;;4793641;29;32418;-73
2022/01/13 04:06:25;;;;;;;9.52;7.53;;;;;;;;;;4793709;29;34583;-73
2022/01/13 04:08:56;;;;;;;7.45;6.72;;;;;;;;;;4791635;29;32486;-73
2022/01/13 04:11:27;;;;;;;10.13;7.57;;;;;;;;;;4791529;29;32383;-74
2022/01/13 04:13:59;;;;;;;11.63;7.28;;;;;;;;;;4792978;29;32526;-73
2022/01/13 04:16:29;;;;;;;9.00;7.32;;;;;;;;;;4793252;29;32390;-74
2022/01/13 04:19:04;;;;;;;10.82;7.32;;;;;;;;;;4792874;29;34759;-73
2022/01/13 04:21:34;;;;;;;8.30;7.00;;;;;;;;;;4792688;29;32476;-73
2022/01/13 04:24:03;;;;;;;8.25;7.55;;;;;;;;;;4790446;29;32302;-73
2022/01/13 04:26:34;;;;;;;10.00;7.22;;;;;;;;;;4792599;29;32640;-73
2022/01/13 04:29:18;;;;;;;8.77;7.47;;;;;;;;;;4792628;29;35110;-72
2022/01/13 04:31:48;;;;;;;10.35;7.32;;;;;;;;;;4792183;29;32411;-73
2022/01/13 04:34:17;;;;;;;10.18;7.60;;;;;;;;;;4790604;29;32383;-71
2022/01/13 04:36:46;;;;;;;10.23;7.75;;;;;;;;;;4776430;29;32553;-71
2022/01/13 04:39:16;;;;;;;7.47;6.78;;;;;;;;;;4774121;29;32542;-71
2022/01/13 04:41:47;;;;;;;12.57;7.35;;;;;;;;;;4792323;29;33929;-71
2022/01/13 04:44:19;;;;;;;9.68;7.22;;;;;;;;;;4790752;29;32363;-73
2022/01/13 04:46:48;;;;;;;11.90;6.93;;;;;;;;;;4792649;29;32375;-73
2022/01/13 04:49:18;;;;;;;7.70;6.72;;;;;;;;;;4790119;29;32520;-71
2022/01/13 04:51:48;;;;;;;8.18;7.05;;;;;;;;;;4786934;29;35136;-72
2022/01/13 04:54:17;;;;;;;10.80;7.95;;;;;;;;;;4782366;29;32672;-71
2022/01/13 04:57:04;;;;;;;8.43;6.60;;;;;;;;;;4786885;29;32397;-72
2022/01/13 04:59:34;;;;;;;7.85;6.80;;;;;;;;;;4767451;29;32571;-72
2022/01/13 05:02:02;;;;;;;10.50;7.32;;;;;;;;;;4791590;29;32493;-75
2022/01/13 05:04:30;;;;;;;9.75;6.80;;;;;;;;;;4789938;29;35415;-75
2022/01/13 05:06:59;;;;;;;7.95;6.80;;;;;;;;;;4790079;29;32651;-74
2022/01/13 05:09:27;;;;;;;10.52;6.97;;;;;;;;;;4786880;29;32467;-78
2022/01/13 05:11:55;;;;;;;8.35;6.78;;;;;;;;;;4791542;29;32328;-75
2022/01/13 05:14:25;;;;;;;9.30;6.63;;;;;;;;;;4789884;29;34168;-76
2022/01/13 05:17:00;;;;;;;7.50;6.75;;;;;;;;;;4792055;29;32453;-75
2022/01/13 05:19:34;;;;;;;7.93;6.95;;;;;;;;;;4790280;29;32406;-75
2022/01/13 05:24:46;;;;;;;7.55;6.68;;;;;;;;;;4783164;29;32998;-77
2022/01/13 05:27:14;;;;;;;7.30;6.60;;;;;;;;;;4789205;29;34060;-75
2022/01/13 05:29:42;;;;;;;7.25;6.22;;;;;;;;;;4790174;29;32596;-74
2022/01/13 05:32:12;;;;;;;7.13;6.43;;;;;;;;;;4790714;29;32363;-74
2022/01/13 05:34:40;;;;;;;7.53;6.75;;;;;;;;;;4789200;29;32434;-74
2022/01/13 05:37:08;;;;;;;6.50;5.95;;;;;;;;;;4789890;29;35759;-74
2022/01/13 05:39:36;;;;;;;7.10;6.20;;;;;;;;;;4790386;29;32784;-73
2022/01/13 05:42:04;;;;;;;11.93;7.18;;;;;;;;;;4790842;29;32601;-75
2022/01/13 05:44:38;;;;;;;8.98;5.95;;;;;;;;;;4790718;29;32295;-75
2022/01/13 05:47:07;;;;;;;7.43;6.22;;;;;;;;;;4783441;29;32479;-75
2022/01/13 05:49:38;;;;;;;7.00;6.15;;;;;;;;;;4784305;29;34632;-74
2022/01/13 05:52:07;;;;;;;7.93;6.10;;;;;;;;;;4791275;29;32373;-74
2022/01/13 05:54:35;;;;;;;7.35;6.65;;;;;;;;;;4791214;29;32400;-74
2022/01/13 05:57:03;;;;;;;9.02;5.55;;;;;;;;;;4791276;29;32442;-74
2022/01/13 05:59:31;;;;;;;7.45;6.50;;;;;;;;;;4791338;29;35297;-74
2022/01/13 06:02:00;;;;;;;10.60;6.28;;;;;;;;;;4785180;29;33076;-74
2022/01/13 06:04:28;;;;;;;8.40;6.15;;;;;;;;;;4791249;29;32406;-75
2022/01/13 06:06:57;;;;;;;12.18;6.88;;;;;;;;;;4790783;29;32177;-75
2022/01/13 06:09:25;;;;;;;8.45;6.65;;;;;;;;;;4785542;29;32772;-75
2022/01/13 06:11:57;;;;;;;7.30;6.50;;;;;;;;;;4790902;29;34797;-75
2022/01/13 06:14:25;;;;;;;8.20;5.50;;;;;;;;;;4791509;29;32298;-75
2022/01/13 06:16:53;;;;;;;7.55;5.95;;;;;;;;;;4791514;29;32539;-75
2022/01/13 06:19:21;;;;;;;6.75;5.90;;;;;;;;;;4791289;29;32544;-75
2022/01/13 06:21:49;;;;;;;10.80;6.32;;;;;;;;;;4790473;29;34578;-74
2022/01/13 06:24:19;;;;;;;6.78;6.15;;;;;;;;;;4791171;29;32640;-75
2022/01/13 06:26:47;;;;;;;7.05;6.00;;;;;;;;;;4790933;29;32525;-75
2022/01/13 06:29:15;;;;;;;6.35;5.72;;;;;;;;;;4790400;29;32565;-74
2022/01/13 06:31:43;;;;;;;6.85;6.15;;;;;;;;;;4791239;29;32373;-76
2022/01/13 06:34:11;;;;;;;7.35;6.10;;;;;;;;;;4790979;29;34221;-74
2022/01/13 06:36:39;;;;;;;5.68;5.25;;;;;;;;;;4791053;29;32519;-76
2022/01/13 06:39:07;;;;;;;7.82;6.35;;;;;;;;;;4791014;29;32381;-75
2022/01/13 06:41:39;;;;;;;5.63;5.13;;;;;;;;;;4791327;29;32352;-74
2022/01/13 06:44:07;;;;;;;6.68;5.75;;;;;;;;;;4788098;29;35360;-74
2022/01/13 06:46:36;;;;;;;13.20;6.20;;;;;;;;;;4790501;29;32709;-74
2022/01/13 06:49:04;;;;;;;8.82;6.07;;;;;;;;;;4790226;29;32990;-74
2022/01/13 06:51:32;;;;;;;7.70;6.43;;;;;;;;;;4790731;29;32422;-74
2022/01/13 15:10:32;;;;;;;6.28;5.68;;;;;;;;;;4785957;29;32599;-78
2022/01/13 15:13:00;;;;;;;6.50;5.93;;;;;;;;;;4783578;29;32491;-76
2022/01/13 15:15:28;;;;;;;5.90;5.40;;;;;;;;;;4794510;29;32578;-76
2022/01/13 15:17:56;;;;;;;6.05;5.50;;;;;;;;;;4772129;29;32349;-76
2022/01/13 15:20:25;;;;;;;7.57;5.97;;;;;;;;;;4794557;29;32490;-78
2022/01/13 15:22:53;;;;;;;6.30;5.70;;;;;;;;;;4793759;29;32256;-76
2022/01/13 15:25:23;;;;;;;7.18;6.47;;;;;;;;;;4792613;29;32765;-77
2022/01/13 15:27:52;;;;;;;6.47;5.72;;;;;;;;;;4792014;29;34700;-77
2022/01/13 15:30:20;;;;;;;5.88;5.05;;;;;;;;;;4790782;29;32450;-79
2022/01/13 15:32:48;;;;;;;6.40;5.57;;;;;;;;;;4791569;29;32512;-77
2022/01/13 15:35:17;;;;;;;5.88;5.28;;;;;;;;;;4793073;29;33073;-78
2022/01/13 15:37:45;;;;;;;7.45;5.50;;;;;;;;;;4792052;29;31821;-78
2022/01/13 15:40:15;;;;;;;6.35;5.80;;;;;;;;;;4792319;29;32624;-76
2022/01/13 15:42:43;;;;;;;6.45;5.85;;;;;;;;;;4790586;29;32358;-74
2022/01/13 15:45:15;;;;;;;6.05;5.47;;;;;;;;;;4794361;29;32387;-77
2022/01/13 15:47:45;;;;;;;9.20;5.35;;;;;;;;;;4794360;29;32270;-76
2022/01/13 15:50:16;;;;;;;5.25;4.85;;;;;;;;;;4793225;29;34748;-77
2022/01/13 15:52:45;;;;;;;6.10;5.60;;;;;;;;;;4794167;29;32427;-76
2022/01/13 15:55:13;;;;;;;6.93;5.05;;;;;;;;;;4793873;29;32142;-76
2022/01/13 15:57:42;;;;;;;5.70;5.20;;;;;;;;;;4777450;29;32384;-75
2022/01/13 16:00:15;;;;;;;5.60;5.20;;;;;;;;;;4793416;29;35312;-73
2022/01/13 16:02:45;;;;;;;7.10;5.50;;;;;;;;;;4793079;29;32561;-74
2022/01/13 16:05:14;;;;;;;4.97;4.57;;;;;;;;;;4793035;29;32534;-76
2022/01/13 16:07:42;;;;;;;7.22;5.65;;;;;;;;;;4793416;29;32709;-75
2022/01/13 16:10:12;;;;;;;6.22;5.38;;;;;;;;;;4794460;29;33017;-76
2022/01/13 16:12:41;;;;;;;6.97;5.43;;;;;;;;;;4792646;29;35758;-77
2022/01/13 16:15:14;;;;;;;6.70;6.10;;;;;;;;;;4790304;29;32545;-77
2022/01/13 16:17:43;;;;;;;5.50;5.10;;;;;;;;;;4793929;29;32312;-77
2022/01/13 16:20:13;;;;;;;5.60;5.18;;;;;;;;;;4777051;29;32347;-76
2022/01/13 16:22:42;;;;;;;8.55;6.47;;;;;;;;;;4792852;29;35829;-76
2022/01/13 16:25:11;;;;;;;6.10;5.53;;;;;;;;;;4789160;29;31940;-77
2022/01/13 16:27:40;;;;;;;6.45;5.25;;;;;;;;;;4791618;29;32587;-77
2022/01/13 16:30:13;;;;;;;5.45;5.05;;;;;;;;;;4791826;29;32496;-75
2022/01/13 16:32:45;;;;;;;48.13;31.83;;;;;;;;;;4791342;29;32828;-69
